Tropical Cyclones
[Index]
Main Index Home Page Stock Weather Photos Extreme Storms Discussion Storm News and Storm Chasing Reports Tropical Cyclones / Hurricanes / Typhoons Weather Data and Links Wild Fires / Bushfires Weather Observation Techniques Weather Picture Catalogue Tornado Pictures and Reports Stock Video Footage and DVDs for sale
Season 1981-1982 Tropical Cyclone ALEX Track Map
Season 1981-1982 Summaries: [BoM-AU] [JTWC-AU] [JTWC-SIO] [JTWC-SPAC] [JTWC-SH]
<<- Previous TC | JTWC 1981-1982 Season | Next TC ->>

click for intensity scale information  Lat/long Grid: Show Hide

 Date Labels: Show Hide

Joint Typhoon Warning Centre Cyclone Data

Name: ALEX

21 Oct 1981 06:00 UTC to 27 Oct 1981 06:00 UTC

    date/time    lat    long     hPa   cat  kts
1981-10-21 06    8.0    84.6            1     40          
1981-10-21 12    8.3    84.7            1     40          
1981-10-21 18    8.5    84.7            1     40          
1981-10-22 00    8.5    84.5            1     50          
1981-10-22 06    8.7    84.6            2     55          
1981-10-22 12    9.1    84.9            2     55          
1981-10-22 18    9.9    85.2            2     60          
1981-10-23 00   11.0    85.7            3     75          
1981-10-23 06   11.8    85.9            3     80          
1981-10-23 12   12.5    85.4            3     85          
1981-10-23 18   13.2    85.0            3     85          
1981-10-24 00   13.9    84.7            3     85          
1981-10-24 06   14.5    84.6            3     85          
1981-10-24 12   14.9    84.8            3     85          
1981-10-24 18   15.4    84.7            3     85          
1981-10-25 00   16.0    83.8            3     85          
1981-10-25 06   16.4    83.5            3     85          
1981-10-25 12   16.5    83.8            3     75          
1981-10-25 18   16.7    83.7            2     70          
1981-10-26 00   17.0    83.5            2     70          
1981-10-26 06   17.5    83.3            2     70          
1981-10-26 12   18.0    83.1            2     60          
1981-10-26 18   18.5    82.8            2     55          
1981-10-27 00   18.9    81.5            1     50          
1981-10-27 06   19.4    80.6            1     50          
Winds are 1-min average.

Tropical cyclone tracks developed by Michael Bath using data from the Joint Typhoon Warning Centre Best Tracks and Google Maps.


[Australian Severe Weather index] [Copyright Notice] [Email Contacts] [Search This Site] [Privacy Policy]
Document: tropical_cyclone_alex.htm Updated: 18 September 2016